CZMT

Masset Airport

Masset, , Canada
METAR CZMT 202300Z 33014KT 15SM FEW260 19/12 A3025 RMK CI1 SLP245 DENSITY ALT 200FT
Observed Flight Rules
Aug-20 @ 23:00 UTC (an hour ago) Visual Flight Rules
Wind Visibility Clouds
330° at 14 knots 15 miles
  • Few at 26,000' AGL
Temperatures Readings
Current 19°C / 66°F
Dewpoint 12°C / 54°F
Humidity 64%
Altimeter 30.25" Hg
Pressure 1024.5 hPa
Elevation 8
METAR CZMT 202300Z 33014KT 15SM FEW260 19/12 A3025 RMK CI1 SLP245 DENSITY ALT 200FT
Observed Flight Rules
Aug-20 @ 23:00 UTC
(an hour ago)
VFR
Wind Visibility
330° at 14 knots 15 miles
Clouds
  • Few at 26,000' AGL
Temperature Dewpoint
19°C / 66°F 12°C / 54°F
Humidity Altimeter Pressure
64% 30.25" Hg 1024.5 hPa